BAW905 EDDF-EGLL
Flight info
| Callsign | BAW905 |
|---|---|
| Flight time | 1h 7m |
| Altitude | 38000 |
| Route | OBOKA3W/25C OBOKA Z29 TORNU DCT ABNED L980 LOGAN |
| Aircraft | A21N/M-SDE2E3FGHIRWXY/LB1 |
Departure
| Time | 2026-05-05 11:34 |
|---|---|
| Airport | Frankfurt Main Airport (EDDF) |
Arrival
| Time | 2026-05-05 12:41 |
|---|---|
| Airport | London Heathrow Airport (EGLL) |
| Time | Latitude | Longitude | Altitude | Speed | Heading |
|---|---|---|---|---|---|
| 2026-05-05 11:12 | 50.05018 | 8.58625 | 365 ft | 0 kts | 339° |
| 2026-05-05 11:25 | 50.05015 | 8.58626 | 365 ft | 1 kts | 339° |
| 2026-05-05 11:25 | 50.04999 | 8.58636 | 368 ft | 3 kts | 339° |
| 2026-05-05 11:25 | 50.04980 | 8.58647 | 366 ft | 3 kts | 339° |
| 2026-05-05 11:26 | 50.04961 | 8.58657 | 366 ft | 3 kts | 335° |
| 2026-05-05 11:26 | 50.04946 | 8.58673 | 368 ft | 4 kts | 306° |
| 2026-05-05 11:26 | 50.04938 | 8.58698 | 365 ft | 3 kts | 271° |
| 2026-05-05 11:26 | 50.04940 | 8.58720 | 365 ft | 3 kts | 249° |
| 2026-05-05 11:27 | 50.04946 | 8.58742 | 365 ft | 4 kts | 250° |
| 2026-05-05 11:27 | 50.04950 | 8.58759 | 368 ft | 3 kts | 250° |
| 2026-05-05 11:29 | 50.04946 | 8.58745 | 368 ft | 7 kts | 249° |
| 2026-05-05 11:29 | 50.04904 | 8.58689 | 366 ft | 10 kts | 190° |
| 2026-05-05 11:30 | 50.04822 | 8.58721 | 371 ft | 14 kts | 160° |
| 2026-05-05 11:30 | 50.04722 | 8.58766 | 374 ft | 9 kts | 183° |
| 2026-05-05 11:30 | 50.04645 | 8.58759 | 376 ft | 7 kts | 187° |
| 2026-05-05 11:30 | 50.04640 | 8.58758 | 376 ft | 0 kts | 187° |
| 2026-05-05 11:32 | 50.04604 | 8.58743 | 376 ft | 13 kts | 204° |
| 2026-05-05 11:33 | 50.04513 | 8.58630 | 376 ft | 12 kts | 219° |
| 2026-05-05 11:33 | 50.04468 | 8.58517 | 375 ft | 3 kts | 252° |
| 2026-05-05 11:33 | 50.04455 | 8.58459 | 375 ft | 18 kts | 250° |
| 2026-05-05 11:33 | 50.04319 | 8.57887 | 372 ft | 93 kts | 250° |
| 2026-05-05 11:34 | 50.04019 | 8.56633 | 364 ft | 152 kts | 249° |
| 2026-05-05 11:34 | 50.03608 | 8.54908 | 594 ft | 174 kts | 250° |
| 2026-05-05 11:34 | 50.03189 | 8.53160 | 1215 ft | 177 kts | 249° |
| 2026-05-05 11:34 | 50.02732 | 8.51296 | 1844 ft | 189 kts | 250° |
| 2026-05-05 11:35 | 50.02107 | 8.49429 | 2474 ft | 203 kts | 227° |
| 2026-05-05 11:35 | 50.00919 | 8.48211 | 3259 ft | 208 kts | 201° |
| 2026-05-05 11:35 | 49.99507 | 8.47743 | 4198 ft | 208 kts | 187° |
| 2026-05-05 11:35 | 49.98061 | 8.47488 | 5163 ft | 210 kts | 187° |
| 2026-05-05 11:36 | 49.96594 | 8.47193 | 5690 ft | 212 kts | 189° |
| 2026-05-05 11:36 | 49.95150 | 8.46664 | 6451 ft | 219 kts | 196° |
| 2026-05-05 11:36 | 49.93655 | 8.45973 | 7066 ft | 237 kts | 197° |
| 2026-05-05 11:36 | 49.92055 | 8.45078 | 7842 ft | 251 kts | 208° |
| 2026-05-05 11:37 | 49.90718 | 8.43303 | 8802 ft | 258 kts | 232° |
| 2026-05-05 11:37 | 49.89759 | 8.40931 | 9839 ft | 261 kts | 238° |
| 2026-05-05 11:37 | 49.88878 | 8.38439 | 10788 ft | 267 kts | 244° |
| 2026-05-05 11:37 | 49.88458 | 8.35622 | 11694 ft | 274 kts | 267° |
| 2026-05-05 11:38 | 49.88576 | 8.32603 | 12369 ft | 289 kts | 274° |
| 2026-05-05 11:38 | 49.88793 | 8.29392 | 12776 ft | 312 kts | 275° |
| 2026-05-05 11:38 | 49.89305 | 8.25993 | 13131 ft | 336 kts | 291° |
| 2026-05-05 11:38 | 49.90551 | 8.22850 | 13818 ft | 347 kts | 305° |
| 2026-05-05 11:39 | 49.92090 | 8.19912 | 14580 ft | 353 kts | 310° |
| 2026-05-05 11:39 | 49.93778 | 8.17129 | 15366 ft | 357 kts | 312° |
| 2026-05-05 11:39 | 49.95510 | 8.14325 | 16140 ft | 362 kts | 312° |
| 2026-05-05 11:39 | 49.97260 | 8.11493 | 16903 ft | 366 kts | 311° |
| 2026-05-05 11:40 | 49.99029 | 8.08603 | 17652 ft | 370 kts | 311° |
| 2026-05-05 11:40 | 50.00808 | 8.05667 | 18360 ft | 375 kts | 311° |
| 2026-05-05 11:40 | 50.02601 | 8.02690 | 19012 ft | 379 kts | 311° |
| 2026-05-05 11:40 | 50.04404 | 7.99685 | 19662 ft | 382 kts | 311° |
| 2026-05-05 11:41 | 50.06229 | 7.96639 | 20295 ft | 387 kts | 311° |
| 2026-05-05 11:41 | 50.08091 | 7.93522 | 20646 ft | 399 kts | 311° |
| 2026-05-05 11:41 | 50.10012 | 7.90307 | 20892 ft | 413 kts | 311° |
| 2026-05-05 11:41 | 50.11978 | 7.87019 | 21109 ft | 426 kts | 311° |
| 2026-05-05 11:42 | 50.14024 | 7.83590 | 21309 ft | 438 kts | 311° |
| 2026-05-05 11:42 | 50.16128 | 7.80060 | 21492 ft | 450 kts | 311° |
| 2026-05-05 11:42 | 50.18304 | 7.76398 | 21740 ft | 459 kts | 311° |
| 2026-05-05 11:42 | 50.20486 | 7.72726 | 22165 ft | 463 kts | 311° |
| 2026-05-05 11:43 | 50.22658 | 7.69068 | 22635 ft | 466 kts | 311° |
| 2026-05-05 11:43 | 50.24871 | 7.65339 | 23134 ft | 469 kts | 311° |
| 2026-05-05 11:43 | 50.27091 | 7.61581 | 23580 ft | 472 kts | 311° |
| 2026-05-05 11:43 | 50.29327 | 7.57795 | 23987 ft | 475 kts | 310° |
| 2026-05-05 11:44 | 50.31579 | 7.53969 | 24403 ft | 477 kts | 310° |
| 2026-05-05 11:44 | 50.33829 | 7.50140 | 24859 ft | 478 kts | 310° |
| 2026-05-05 11:44 | 50.36077 | 7.46324 | 25383 ft | 477 kts | 310° |
| 2026-05-05 11:44 | 50.38320 | 7.42510 | 25949 ft | 474 kts | 310° |
| 2026-05-05 11:45 | 50.40545 | 7.38718 | 26521 ft | 472 kts | 309° |
| 2026-05-05 11:45 | 50.42764 | 7.34925 | 27081 ft | 470 kts | 309° |
| 2026-05-05 11:45 | 50.44965 | 7.31155 | 27629 ft | 468 kts | 309° |
| 2026-05-05 11:45 | 50.47160 | 7.27388 | 28199 ft | 466 kts | 309° |
| 2026-05-05 11:46 | 50.49341 | 7.23646 | 28772 ft | 463 kts | 309° |
| 2026-05-05 11:46 | 50.51510 | 7.19914 | 29325 ft | 461 kts | 308° |
| 2026-05-05 11:46 | 50.53666 | 7.16186 | 29862 ft | 460 kts | 308° |
| 2026-05-05 11:46 | 50.55818 | 7.12477 | 30333 ft | 458 kts | 308° |
| 2026-05-05 11:47 | 50.57967 | 7.08775 | 30744 ft | 458 kts | 308° |
| 2026-05-05 11:47 | 50.60109 | 7.05077 | 31171 ft | 457 kts | 308° |
| 2026-05-05 11:47 | 50.62232 | 7.01370 | 31620 ft | 455 kts | 307° |
| 2026-05-05 11:47 | 50.64330 | 6.97739 | 32035 ft | 454 kts | 307° |
| 2026-05-05 11:48 | 50.68575 | 6.90375 | 32846 ft | 452 kts | 307° |
| 2026-05-05 11:48 | 50.70684 | 6.86706 | 33260 ft | 451 kts | 307° |
| 2026-05-05 11:48 | 50.72791 | 6.83037 | 33629 ft | 451 kts | 307° |
| 2026-05-05 11:49 | 50.74892 | 6.79365 | 33973 ft | 450 kts | 306° |
| 2026-05-05 11:49 | 50.76978 | 6.75693 | 34278 ft | 449 kts | 307° |
| 2026-05-05 11:49 | 50.78395 | 6.73214 | 34458 ft | 449 kts | 307° |
| 2026-05-05 11:49 | 50.80455 | 6.69610 | 34731 ft | 449 kts | 307° |
| 2026-05-05 11:50 | 50.82537 | 6.65958 | 34993 ft | 449 kts | 307° |
| 2026-05-05 11:50 | 50.84660 | 6.62216 | 35262 ft | 448 kts | 306° |
| 2026-05-05 11:50 | 50.86739 | 6.58524 | 35520 ft | 449 kts | 307° |
| 2026-05-05 11:50 | 50.88795 | 6.54901 | 35755 ft | 449 kts | 307° |
| 2026-05-05 11:51 | 50.90878 | 6.51227 | 35982 ft | 449 kts | 307° |
| 2026-05-05 11:51 | 50.92950 | 6.47527 | 36226 ft | 448 kts | 307° |
| 2026-05-05 11:51 | 50.95024 | 6.43843 | 36455 ft | 448 kts | 307° |
| 2026-05-05 11:51 | 50.97107 | 6.40153 | 36671 ft | 448 kts | 307° |
| 2026-05-05 11:52 | 50.99186 | 6.36463 | 36898 ft | 448 kts | 307° |
| 2026-05-05 11:52 | 51.01250 | 6.32763 | 37111 ft | 448 kts | 307° |
| 2026-05-05 11:52 | 51.03331 | 6.29077 | 37321 ft | 448 kts | 307° |
| 2026-05-05 11:52 | 51.05410 | 6.25393 | 37527 ft | 448 kts | 307° |
| 2026-05-05 11:53 | 51.07483 | 6.21694 | 37733 ft | 448 kts | 307° |
| 2026-05-05 11:53 | 51.09561 | 6.17989 | 37895 ft | 449 kts | 307° |
| 2026-05-05 11:53 | 51.13462 | 6.10312 | 37894 ft | 441 kts | 296° |
| 2026-05-05 11:54 | 51.14708 | 6.05911 | 37881 ft | 434 kts | 284° |
| 2026-05-05 11:54 | 51.15502 | 6.01279 | 37882 ft | 433 kts | 280° |
| 2026-05-05 11:54 | 51.16950 | 5.91962 | 37878 ft | 433 kts | 281° |
| 2026-05-05 11:55 | 51.18536 | 5.82687 | 37885 ft | 436 kts | 286° |
| 2026-05-05 11:55 | 51.20838 | 5.73703 | 37892 ft | 438 kts | 289° |
| 2026-05-05 11:56 | 51.23197 | 5.64803 | 37898 ft | 438 kts | 289° |
| 2026-05-05 11:56 | 51.25534 | 5.55835 | 37903 ft | 438 kts | 289° |
| 2026-05-05 11:57 | 51.27910 | 5.46862 | 37901 ft | 438 kts | 290° |
| 2026-05-05 11:57 | 51.30270 | 5.37881 | 37911 ft | 438 kts | 289° |
| 2026-05-05 11:58 | 51.32604 | 5.28869 | 37905 ft | 438 kts | 289° |
| 2026-05-05 11:58 | 51.34938 | 5.19861 | 37904 ft | 438 kts | 289° |
| 2026-05-05 11:59 | 51.37266 | 5.10848 | 37914 ft | 438 kts | 289° |
| 2026-05-05 11:59 | 51.39565 | 5.01829 | 37920 ft | 438 kts | 289° |
| 2026-05-05 12:00 | 51.41858 | 4.92780 | 37927 ft | 438 kts | 289° |
| 2026-05-05 12:00 | 51.44155 | 4.83806 | 37934 ft | 438 kts | 289° |
| 2026-05-05 12:01 | 51.46429 | 4.74846 | 37933 ft | 438 kts | 289° |
| 2026-05-05 12:01 | 51.48730 | 4.65774 | 37927 ft | 438 kts | 289° |
| 2026-05-05 12:02 | 51.51012 | 4.56688 | 37903 ft | 438 kts | 289° |
| 2026-05-05 12:02 | 51.53256 | 4.47665 | 37908 ft | 438 kts | 289° |
| 2026-05-05 12:03 | 51.55522 | 4.38564 | 37908 ft | 438 kts | 289° |
| 2026-05-05 12:03 | 51.57790 | 4.29460 | 37910 ft | 439 kts | 289° |
| 2026-05-05 12:04 | 51.60053 | 4.20344 | 37912 ft | 439 kts | 289° |
| 2026-05-05 12:04 | 51.62302 | 4.11211 | 37916 ft | 439 kts | 289° |
| 2026-05-05 12:05 | 51.64530 | 4.02120 | 37922 ft | 439 kts | 289° |
| 2026-05-05 12:05 | 51.66765 | 3.92975 | 37931 ft | 439 kts | 289° |
| 2026-05-05 12:06 | 51.69006 | 3.83758 | 37943 ft | 439 kts | 289° |
| 2026-05-05 12:06 | 51.71209 | 3.74667 | 37941 ft | 438 kts | 289° |
| 2026-05-05 12:07 | 51.73415 | 3.65503 | 37968 ft | 439 kts | 289° |
| 2026-05-05 12:07 | 51.75622 | 3.56323 | 37924 ft | 438 kts | 289° |
| 2026-05-05 12:08 | 51.77816 | 3.47142 | 37943 ft | 438 kts | 289° |
| 2026-05-05 12:08 | 51.80006 | 3.37966 | 37948 ft | 438 kts | 289° |
| 2026-05-05 12:09 | 51.82170 | 3.28807 | 37650 ft | 434 kts | 288° |
| 2026-05-05 12:09 | 51.83238 | 3.24235 | 37370 ft | 435 kts | 288° |
| 2026-05-05 12:09 | 51.84218 | 3.19595 | 37097 ft | 434 kts | 282° |
| 2026-05-05 12:10 | 51.84662 | 3.14859 | 36832 ft | 431 kts | 270° |
| 2026-05-05 12:10 | 51.84515 | 3.10036 | 36582 ft | 429 kts | 263° |
| 2026-05-05 12:10 | 51.84191 | 3.05245 | 36326 ft | 429 kts | 262° |
| 2026-05-05 12:10 | 51.83855 | 3.00461 | 36074 ft | 429 kts | 262° |
| 2026-05-05 12:11 | 51.83526 | 2.95704 | 35824 ft | 428 kts | 262° |
| 2026-05-05 12:11 | 51.83197 | 2.90915 | 35571 ft | 428 kts | 262° |
| 2026-05-05 12:11 | 51.82873 | 2.86130 | 35326 ft | 428 kts | 262° |
| 2026-05-05 12:11 | 51.82555 | 2.81354 | 35076 ft | 427 kts | 262° |
| 2026-05-05 12:12 | 51.82237 | 2.76579 | 34830 ft | 427 kts | 262° |
| 2026-05-05 12:12 | 51.81917 | 2.71796 | 34576 ft | 430 kts | 262° |
| 2026-05-05 12:12 | 51.81587 | 2.66961 | 34359 ft | 435 kts | 262° |
| 2026-05-05 12:12 | 51.81255 | 2.62101 | 34120 ft | 436 kts | 262° |
| 2026-05-05 12:13 | 51.80919 | 2.57236 | 33869 ft | 436 kts | 262° |
| 2026-05-05 12:13 | 51.80581 | 2.52361 | 33591 ft | 436 kts | 261° |
| 2026-05-05 12:13 | 51.80237 | 2.47487 | 33312 ft | 438 kts | 261° |
| 2026-05-05 12:13 | 51.79889 | 2.42590 | 33037 ft | 439 kts | 261° |
| 2026-05-05 12:14 | 51.79534 | 2.37682 | 32761 ft | 440 kts | 261° |
| 2026-05-05 12:14 | 51.79187 | 2.32766 | 32492 ft | 442 kts | 261° |
| 2026-05-05 12:14 | 51.78840 | 2.27828 | 32230 ft | 443 kts | 261° |
| 2026-05-05 12:14 | 51.78493 | 2.22884 | 31965 ft | 444 kts | 262° |
| 2026-05-05 12:15 | 51.78192 | 2.17898 | 31704 ft | 446 kts | 262° |
| 2026-05-05 12:15 | 51.77896 | 2.12909 | 31447 ft | 447 kts | 262° |
| 2026-05-05 12:15 | 51.77604 | 2.07905 | 31191 ft | 449 kts | 262° |
| 2026-05-05 12:15 | 51.77302 | 2.02883 | 30940 ft | 450 kts | 262° |
| 2026-05-05 12:16 | 51.77002 | 1.97846 | 30687 ft | 451 kts | 262° |
| 2026-05-05 12:16 | 51.76706 | 1.92908 | 30198 ft | 441 kts | 262° |
| 2026-05-05 12:16 | 51.76386 | 1.87901 | 29036 ft | 450 kts | 262° |
| 2026-05-05 12:16 | 51.76066 | 1.82879 | 28554 ft | 459 kts | 262° |
| 2026-05-05 12:17 | 51.75744 | 1.77746 | 27961 ft | 461 kts | 262° |
| 2026-05-05 12:17 | 51.75425 | 1.72587 | 27077 ft | 462 kts | 262° |
| 2026-05-05 12:17 | 51.75107 | 1.67340 | 26138 ft | 466 kts | 263° |
| 2026-05-05 12:17 | 51.74787 | 1.62178 | 25217 ft | 469 kts | 262° |
| 2026-05-05 12:18 | 51.74457 | 1.56919 | 24538 ft | 474 kts | 263° |
| 2026-05-05 12:18 | 51.74129 | 1.51713 | 24188 ft | 458 kts | 262° |
| 2026-05-05 12:18 | 51.73813 | 1.46662 | 23536 ft | 448 kts | 263° |
| 2026-05-05 12:18 | 51.73495 | 1.41646 | 22391 ft | 451 kts | 263° |
| 2026-05-05 12:19 | 51.73164 | 1.36616 | 21730 ft | 449 kts | 263° |
| 2026-05-05 12:19 | 51.72837 | 1.31629 | 21152 ft | 445 kts | 263° |
| 2026-05-05 12:19 | 51.72514 | 1.26691 | 20435 ft | 441 kts | 263° |
| 2026-05-05 12:19 | 51.72186 | 1.21789 | 19682 ft | 437 kts | 263° |
| 2026-05-05 12:20 | 51.71865 | 1.16934 | 18974 ft | 433 kts | 263° |
| 2026-05-05 12:20 | 51.71542 | 1.12117 | 18272 ft | 430 kts | 263° |
| 2026-05-05 12:20 | 51.71211 | 1.07349 | 17500 ft | 426 kts | 263° |
| 2026-05-05 12:20 | 51.70887 | 1.02619 | 16860 ft | 422 kts | 263° |
| 2026-05-05 12:21 | 51.70569 | 0.97945 | 16316 ft | 419 kts | 264° |
| 2026-05-05 12:21 | 51.70253 | 0.93268 | 16020 ft | 419 kts | 264° |
| 2026-05-05 12:21 | 51.69936 | 0.88659 | 15674 ft | 407 kts | 264° |
| 2026-05-05 12:21 | 51.69622 | 0.84117 | 14651 ft | 409 kts | 264° |
| 2026-05-05 12:22 | 51.69304 | 0.79567 | 13720 ft | 408 kts | 264° |
| 2026-05-05 12:22 | 51.68985 | 0.75083 | 12831 ft | 406 kts | 264° |
| 2026-05-05 12:22 | 51.68665 | 0.70609 | 12171 ft | 397 kts | 264° |
| 2026-05-05 12:22 | 51.68348 | 0.66232 | 11586 ft | 387 kts | 264° |
| 2026-05-05 12:23 | 51.68043 | 0.62016 | 11264 ft | 371 kts | 264° |
| 2026-05-05 12:23 | 51.67753 | 0.57964 | 11021 ft | 356 kts | 264° |
| 2026-05-05 12:23 | 51.67478 | 0.54101 | 10768 ft | 338 kts | 264° |
| 2026-05-05 12:23 | 51.67215 | 0.50442 | 10450 ft | 320 kts | 264° |
| 2026-05-05 12:24 | 51.66963 | 0.46966 | 10095 ft | 305 kts | 264° |
| 2026-05-05 12:24 | 51.66724 | 0.43647 | 9725 ft | 292 kts | 264° |
| 2026-05-05 12:24 | 51.66489 | 0.40441 | 9218 ft | 287 kts | 264° |
| 2026-05-05 12:24 | 51.66250 | 0.37251 | 9007 ft | 286 kts | 264° |
| 2026-05-05 12:25 | 51.66014 | 0.34075 | 8955 ft | 286 kts | 264° |
| 2026-05-05 12:25 | 51.65779 | 0.30895 | 8955 ft | 286 kts | 264° |
| 2026-05-05 12:25 | 51.65540 | 0.27717 | 8956 ft | 286 kts | 264° |
| 2026-05-05 12:25 | 51.65301 | 0.24541 | 8961 ft | 284 kts | 263° |
| 2026-05-05 12:26 | 51.65066 | 0.21475 | 8952 ft | 267 kts | 264° |
| 2026-05-05 12:26 | 51.64850 | 0.18592 | 8946 ft | 253 kts | 264° |
| 2026-05-05 12:26 | 51.64658 | 0.15700 | 8956 ft | 260 kts | 265° |
| 2026-05-05 12:26 | 51.64508 | 0.12865 | 8953 ft | 252 kts | 266° |
| 2026-05-05 12:27 | 51.64363 | 0.10057 | 8956 ft | 252 kts | 266° |
| 2026-05-05 12:27 | 51.64219 | 0.07249 | 8959 ft | 252 kts | 266° |
| 2026-05-05 12:27 | 51.64074 | 0.04431 | 8960 ft | 252 kts | 266° |
| 2026-05-05 12:27 | 51.63928 | 0.01623 | 8961 ft | 252 kts | 266° |
| 2026-05-05 12:28 | 51.63782 | -0.01190 | 8963 ft | 252 kts | 266° |
| 2026-05-05 12:28 | 51.63635 | -0.04005 | 8970 ft | 252 kts | 266° |
| 2026-05-05 12:28 | 51.63489 | -0.06813 | 8971 ft | 252 kts | 266° |
| 2026-05-05 12:28 | 51.63344 | -0.09626 | 8970 ft | 252 kts | 266° |
| 2026-05-05 12:29 | 51.63198 | -0.12433 | 8776 ft | 251 kts | 266° |
| 2026-05-05 12:29 | 51.63052 | -0.15234 | 8551 ft | 251 kts | 266° |
| 2026-05-05 12:29 | 51.62907 | -0.18023 | 8301 ft | 250 kts | 266° |
| 2026-05-05 12:29 | 51.62762 | -0.20807 | 8054 ft | 249 kts | 266° |
| 2026-05-05 12:30 | 51.62616 | -0.23585 | 7966 ft | 248 kts | 266° |
| 2026-05-05 12:30 | 51.62471 | -0.26363 | 7968 ft | 249 kts | 266° |
| 2026-05-05 12:30 | 51.62326 | -0.29100 | 7982 ft | 249 kts | 266° |
| 2026-05-05 12:30 | 51.62179 | -0.31876 | 7988 ft | 249 kts | 266° |
| 2026-05-05 12:31 | 51.62033 | -0.34649 | 7966 ft | 249 kts | 266° |
| 2026-05-05 12:31 | 51.61886 | -0.37428 | 7966 ft | 249 kts | 266° |
| 2026-05-05 12:31 | 51.61739 | -0.40206 | 7965 ft | 249 kts | 266° |
| 2026-05-05 12:31 | 51.61591 | -0.42976 | 7966 ft | 249 kts | 266° |
| 2026-05-05 12:32 | 51.61442 | -0.45753 | 7968 ft | 249 kts | 266° |
| 2026-05-05 12:32 | 51.61292 | -0.48531 | 7963 ft | 249 kts | 266° |
| 2026-05-05 12:32 | 51.61142 | -0.51301 | 7965 ft | 249 kts | 265° |
| 2026-05-05 12:32 | 51.60992 | -0.54075 | 7825 ft | 249 kts | 265° |
| 2026-05-05 12:33 | 51.60841 | -0.56844 | 7500 ft | 248 kts | 265° |
| 2026-05-05 12:33 | 51.60690 | -0.59604 | 7173 ft | 247 kts | 266° |
| 2026-05-05 12:33 | 51.60537 | -0.62349 | 6849 ft | 246 kts | 266° |
| 2026-05-05 12:33 | 51.60434 | -0.64166 | 6623 ft | 246 kts | 265° |
| 2026-05-05 12:34 | 51.60276 | -0.66907 | 6293 ft | 245 kts | 265° |
| 2026-05-05 12:34 | 51.60116 | -0.69645 | 5885 ft | 247 kts | 266° |
| 2026-05-05 12:34 | 51.59868 | -0.72380 | 5497 ft | 248 kts | 252° |
| 2026-05-05 12:34 | 51.58993 | -0.74713 | 5161 ft | 249 kts | 226° |
| 2026-05-05 12:35 | 51.57730 | -0.76605 | 4896 ft | 247 kts | 221° |
| 2026-05-05 12:35 | 51.56436 | -0.78390 | 4586 ft | 243 kts | 221° |
| 2026-05-05 12:35 | 51.55155 | -0.80140 | 4283 ft | 239 kts | 220° |
| 2026-05-05 12:35 | 51.53719 | -0.81511 | 4001 ft | 245 kts | 195° |
| 2026-05-05 12:36 | 51.52040 | -0.81677 | 3781 ft | 242 kts | 167° |
| 2026-05-05 12:36 | 51.50558 | -0.80604 | 3537 ft | 229 kts | 137° |
| 2026-05-05 12:36 | 51.49548 | -0.78721 | 3289 ft | 220 kts | 122° |
| 2026-05-05 12:36 | 51.48699 | -0.76726 | 3046 ft | 210 kts | 121° |
| 2026-05-05 12:37 | 51.48025 | -0.74768 | 2978 ft | 192 kts | 105° |
| 2026-05-05 12:37 | 51.47770 | -0.72738 | 2960 ft | 183 kts | 93° |
| 2026-05-05 12:37 | 51.47704 | -0.70773 | 2862 ft | 170 kts | 88° |
| 2026-05-05 12:37 | 51.47686 | -0.68912 | 2662 ft | 165 kts | 87° |
| 2026-05-05 12:38 | 51.47687 | -0.67093 | 2435 ft | 161 kts | 86° |
| 2026-05-05 12:38 | 51.47692 | -0.65306 | 2204 ft | 161 kts | 86° |
| 2026-05-05 12:38 | 51.47699 | -0.63514 | 1981 ft | 161 kts | 86° |
| 2026-05-05 12:38 | 51.47705 | -0.61719 | 1758 ft | 161 kts | 86° |
| 2026-05-05 12:39 | 51.47712 | -0.59922 | 1527 ft | 161 kts | 86° |
| 2026-05-05 12:39 | 51.47717 | -0.58187 | 1325 ft | 151 kts | 86° |
| 2026-05-05 12:39 | 51.47723 | -0.56650 | 1122 ft | 132 kts | 86° |
| 2026-05-05 12:39 | 51.47728 | -0.55193 | 935 ft | 131 kts | 85° |
| 2026-05-05 12:40 | 51.47740 | -0.53735 | 802 ft | 132 kts | 86° |
| 2026-05-05 12:40 | 51.47738 | -0.52277 | 569 ft | 130 kts | 87° |
| 2026-05-05 12:40 | 51.47742 | -0.50823 | 393 ft | 130 kts | 86° |
| 2026-05-05 12:40 | 51.47749 | -0.49387 | 232 ft | 131 kts | 86° |
| 2026-05-05 12:41 | 51.47752 | -0.47925 | 107 ft | 129 kts | 86° |
| 2026-05-05 12:41 | 51.47757 | -0.46660 | 98 ft | 78 kts | 89° |
| 2026-05-05 12:41 | 51.47755 | -0.46254 | 94 ft | 20 kts | 113° |
| 2026-05-05 12:41 | 51.47666 | -0.46105 | 93 ft | 3 kts | 145° |
| 2026-05-05 12:42 | 51.47643 | -0.46079 | 92 ft | 6 kts | 145° |
| 2026-05-05 12:42 | 51.47600 | -0.46088 | 92 ft | 9 kts | 245° |
| 2026-05-05 12:42 | 51.47589 | -0.46207 | 92 ft | 12 kts | 277° |
| 2026-05-05 12:42 | 51.47593 | -0.46359 | 92 ft | 15 kts | 270° |
| 2026-05-05 12:43 | 51.47592 | -0.46538 | 92 ft | 17 kts | 270° |
| 2026-05-05 12:43 | 51.47591 | -0.46743 | 92 ft | 19 kts | 269° |
| 2026-05-05 12:43 | 51.47582 | -0.46971 | 93 ft | 21 kts | 264° |
| 2026-05-05 12:43 | 51.47579 | -0.47132 | 92 ft | 13 kts | 269° |
| 2026-05-05 12:44 | 51.47580 | -0.47290 | 94 ft | 15 kts | 271° |
| 2026-05-05 12:44 | 51.47581 | -0.47474 | 94 ft | 18 kts | 270° |
| 2026-05-05 12:44 | 51.47581 | -0.47683 | 95 ft | 19 kts | 270° |
| 2026-05-05 12:44 | 51.47580 | -0.47904 | 95 ft | 20 kts | 270° |
| 2026-05-05 12:45 | 51.47578 | -0.48134 | 94 ft | 21 kts | 269° |
| 2026-05-05 12:45 | 51.47577 | -0.48378 | 92 ft | 22 kts | 270° |
| 2026-05-05 12:45 | 51.47458 | -0.48482 | 92 ft | 23 kts | 176° |
| 2026-05-05 12:45 | 51.47329 | -0.48478 | 92 ft | 8 kts | 179° |
| 2026-05-05 12:46 | 51.47327 | -0.48478 | 92 ft | 0 kts | 179° |
| 2026-05-05 12:47 | 51.47321 | -0.48479 | 92 ft | 2 kts | 193° |
| 2026-05-05 12:47 | 51.47314 | -0.48509 | 94 ft | 4 kts | 269° |
| 2026-05-05 12:47 | 51.47315 | -0.48568 | 92 ft | 6 kts | 269° |
| 2026-05-05 12:47 | 51.47315 | -0.48597 | 92 ft | 3 kts | 270° |